Terminal Aerodrome Forecast
Issued by NWS Portland, OR

Home | Current Version | Previous Version | Text Only | Print | Product List | Glossary On
Versions: 1 2 3 4 5 6 7 8 9 10 11 12 13 14 15 16 17 18 19 20 21 22 23 24 25 26 27 28 29 30 31 32 33 34 35 36 37 38 39 40 41 42 43 44 45 46
000
FTUS46 KPQR 030724 AAA
TAFHIO
TAF AMD
KHIO 030724Z 0307/0406 21003KT P6SM VCSH OVC010
     FM030900 28003KT 5SM BR SCT009 BKN015 OVC035
     FM031400 22003KT 3SM BR BKN009 BKN015 OVC035
     FM032000 22005KT P6SM BKN015 BKN035=

USA.gov is the U.S. government's official web portal to all federal, state and local government web resources and services.